<?xml version="1.0" encoding="UTF-8" standalone="no" ?>
<gpx xmlns="http://www.topografix.com/GPX/1/1" xmlns:xsi="http://www.w3.org/2001/XMLSchema-instance" xsi:schemaLocation="http://www.topografix.com/GPX/1/1 http://www.topografix.com/GPX/1/1/gpx.xsd" version="1.1" creator="VisuGPX - https://www.visugpx.com">
  <metadata>
    <name>GRPMelusine_J5_J9</name>
    <desc><![CDATA[gnerando idor: 12434239_12434246_12434251_12431499_12431542]]></desc>
  </metadata>
  <trk>
    <name><![CDATA[GRPMelusineJ6_VouvantStLaurentS_21km-12434246]]></name>
    <extensions>
      <line xmlns="http://www.topografix.com/GPX/gpx_style/0/2">
        <color>0000FF</color>
        <width>4</width>
      </line>
    </extensions>
    <trkseg>
      <trkpt lat="46.56286" lon="-0.76689">
        <ele>79</ele>
        <time>2023-10-30T09:49:05Z</time>
      </trkpt>
      <trkpt lat="46.5615" lon="-0.77061">
        <ele>72</ele>
        <time>2023-10-30T09:55:32Z</time>
      </trkpt>
      <trkpt lat="46.56048" lon="-0.77187">
        <ele>67</ele>
        <time>2023-10-30T09:58:30Z</time>
      </trkpt>
      <trkpt lat="46.56017" lon="-0.77172">
        <ele>66</ele>
        <time>2023-10-30T09:59:14Z</time>
      </trkpt>
      <trkpt lat="46.55955" lon="-0.77174">
        <ele>67</ele>
        <time>2023-10-30T10:00:37Z</time>
      </trkpt>
      <trkpt lat="46.55843" lon="-0.77104">
        <ele>69</ele>
        <time>2023-10-30T10:03:19Z</time>
      </trkpt>
      <trkpt lat="46.55775" lon="-0.77089">
        <ele>68</ele>
        <time>2023-10-30T10:04:51Z</time>
      </trkpt>
      <trkpt lat="46.55619" lon="-0.77007">
        <ele>64</ele>
        <time>2023-10-30T10:08:32Z</time>
      </trkpt>
      <trkpt lat="46.55566" lon="-0.77009">
        <ele>65</ele>
        <time>2023-10-30T10:09:43Z</time>
      </trkpt>
      <trkpt lat="46.55533" lon="-0.77091">
        <ele>65</ele>
        <time>2023-10-30T10:11:10Z</time>
      </trkpt>
      <trkpt lat="46.5538" lon="-0.7723">
        <ele>74</ele>
        <time>2023-10-30T10:15:11Z</time>
      </trkpt>
      <trkpt lat="46.55303" lon="-0.77224">
        <ele>76</ele>
        <time>2023-10-30T10:16:54Z</time>
      </trkpt>
      <trkpt lat="46.55257" lon="-0.77258">
        <ele>74</ele>
        <time>2023-10-30T10:18:03Z</time>
      </trkpt>
      <trkpt lat="46.55204" lon="-0.7732">
        <ele>73</ele>
        <time>2023-10-30T10:19:34Z</time>
      </trkpt>
      <trkpt lat="46.55161" lon="-0.77355">
        <ele>71</ele>
        <time>2023-10-30T10:20:39Z</time>
      </trkpt>
      <trkpt lat="46.5511" lon="-0.77417">
        <ele>72</ele>
        <time>2023-10-30T10:22:08Z</time>
      </trkpt>
      <trkpt lat="46.5458" lon="-0.77237">
        <ele>88</ele>
        <time>2023-10-30T10:34:14Z</time>
      </trkpt>
      <trkpt lat="46.54629" lon="-0.77483">
        <ele>88</ele>
        <time>2023-10-30T10:38:09Z</time>
      </trkpt>
      <trkpt lat="46.54648" lon="-0.77548">
        <ele>89</ele>
        <time>2023-10-30T10:39:14Z</time>
      </trkpt>
      <trkpt lat="46.5462" lon="-0.77752">
        <ele>84</ele>
        <time>2023-10-30T10:42:25Z</time>
      </trkpt>
      <trkpt lat="46.54558" lon="-0.77895">
        <ele>79</ele>
        <time>2023-10-30T10:45:00Z</time>
      </trkpt>
      <trkpt lat="46.54555" lon="-0.77979">
        <ele>77</ele>
        <time>2023-10-30T10:46:17Z</time>
      </trkpt>
      <trkpt lat="46.54606" lon="-0.78151">
        <ele>54</ele>
        <time>2023-10-30T10:49:09Z</time>
      </trkpt>
      <trkpt lat="46.54505" lon="-0.78217">
        <ele>54</ele>
        <time>2023-10-30T10:51:37Z</time>
      </trkpt>
      <trkpt lat="46.54466" lon="-0.78217">
        <ele>54</ele>
        <time>2023-10-30T10:52:29Z</time>
      </trkpt>
      <trkpt lat="46.54428" lon="-0.78172">
        <ele>53</ele>
        <time>2023-10-30T10:53:35Z</time>
      </trkpt>
      <trkpt lat="46.54416" lon="-0.78114">
        <ele>54</ele>
        <time>2023-10-30T10:54:30Z</time>
      </trkpt>
      <trkpt lat="46.54325" lon="-0.78112">
        <ele>48</ele>
        <time>2023-10-30T10:56:32Z</time>
      </trkpt>
      <trkpt lat="46.54288" lon="-0.78095">
        <ele>64</ele>
        <time>2023-10-30T10:57:23Z</time>
      </trkpt>
      <trkpt lat="46.54276" lon="-0.78114">
        <ele>69</ele>
        <time>2023-10-30T10:57:47Z</time>
      </trkpt>
      <trkpt lat="46.54291" lon="-0.78187">
        <ele>64</ele>
        <time>2023-10-30T10:58:57Z</time>
      </trkpt>
      <trkpt lat="46.54277" lon="-0.78245">
        <ele>72</ele>
        <time>2023-10-30T10:59:53Z</time>
      </trkpt>
      <trkpt lat="46.54326" lon="-0.78312">
        <ele>68</ele>
        <time>2023-10-30T11:01:23Z</time>
      </trkpt>
      <trkpt lat="46.54369" lon="-0.78342">
        <ele>69</ele>
        <time>2023-10-30T11:02:27Z</time>
      </trkpt>
      <trkpt lat="46.54491" lon="-0.78393">
        <ele>71</ele>
        <time>2023-10-30T11:05:16Z</time>
      </trkpt>
      <trkpt lat="46.54552" lon="-0.78387">
        <ele>61</ele>
        <time>2023-10-30T11:06:38Z</time>
      </trkpt>
      <trkpt lat="46.5457" lon="-0.78397">
        <ele>60</ele>
        <time>2023-10-30T11:07:04Z</time>
      </trkpt>
      <trkpt lat="46.54568" lon="-0.78445">
        <ele>65</ele>
        <time>2023-10-30T11:07:48Z</time>
      </trkpt>
      <trkpt lat="46.54496" lon="-0.78608">
        <ele>81</ele>
        <time>2023-10-30T11:10:45Z</time>
      </trkpt>
      <trkpt lat="46.54459" lon="-0.78648">
        <ele>85</ele>
        <time>2023-10-30T11:11:47Z</time>
      </trkpt>
      <trkpt lat="46.54412" lon="-0.78629">
        <ele>95</ele>
        <time>2023-10-30T11:12:52Z</time>
      </trkpt>
      <trkpt lat="46.5432" lon="-0.7864">
        <ele>101</ele>
        <time>2023-10-30T11:14:55Z</time>
      </trkpt>
      <trkpt lat="46.54206" lon="-0.78715">
        <ele>104</ele>
        <time>2023-10-30T11:17:42Z</time>
      </trkpt>
      <trkpt lat="46.5408" lon="-0.78857">
        <ele>106</ele>
        <time>2023-10-30T11:21:15Z</time>
      </trkpt>
      <trkpt lat="46.53889" lon="-0.79123">
        <ele>113</ele>
        <time>2023-10-30T11:27:08Z</time>
      </trkpt>
      <trkpt lat="46.54066" lon="-0.79314">
        <ele>121</ele>
        <time>2023-10-30T11:32:02Z</time>
      </trkpt>
      <trkpt lat="46.54105" lon="-0.79378">
        <ele>123</ele>
        <time>2023-10-30T11:33:21Z</time>
      </trkpt>
      <trkpt lat="46.54348" lon="-0.79687">
        <ele>119</ele>
        <time>2023-10-30T11:40:31Z</time>
      </trkpt>
      <trkpt lat="46.54378" lon="-0.79721">
        <ele>119</ele>
        <time>2023-10-30T11:41:22Z</time>
      </trkpt>
      <trkpt lat="46.54496" lon="-0.79942">
        <ele>119</ele>
        <time>2023-10-30T11:45:39Z</time>
      </trkpt>
      <trkpt lat="46.54509" lon="-0.7999">
        <ele>120</ele>
        <time>2023-10-30T11:46:26Z</time>
      </trkpt>
      <trkpt lat="46.54583" lon="-0.80105">
        <ele>117</ele>
        <time>2023-10-30T11:48:51Z</time>
      </trkpt>
      <trkpt lat="46.54682" lon="-0.80206">
        <ele>114</ele>
        <time>2023-10-30T11:51:32Z</time>
      </trkpt>
      <trkpt lat="46.54694" lon="-0.80239">
        <ele>116</ele>
        <time>2023-10-30T11:52:07Z</time>
      </trkpt>
      <trkpt lat="46.54713" lon="-0.80307">
        <ele>118</ele>
        <time>2023-10-30T11:53:14Z</time>
      </trkpt>
      <trkpt lat="46.54733" lon="-0.80333">
        <ele>119</ele>
        <time>2023-10-30T11:53:50Z</time>
      </trkpt>
      <trkpt lat="46.54733" lon="-0.80378">
        <ele>118</ele>
        <time>2023-10-30T11:54:31Z</time>
      </trkpt>
      <trkpt lat="46.5477" lon="-0.80526">
        <ele>116</ele>
        <time>2023-10-30T11:56:56Z</time>
      </trkpt>
      <trkpt lat="46.54809" lon="-0.80543">
        <ele>116</ele>
        <time>2023-10-30T11:57:50Z</time>
      </trkpt>
      <trkpt lat="46.54807" lon="-0.80582">
        <ele>116</ele>
        <time>2023-10-30T11:58:26Z</time>
      </trkpt>
      <trkpt lat="46.54828" lon="-0.80631">
        <ele>116</ele>
        <time>2023-10-30T11:59:19Z</time>
      </trkpt>
      <trkpt lat="46.54952" lon="-0.80848">
        <ele>114</ele>
        <time>2023-10-30T12:03:38Z</time>
      </trkpt>
      <trkpt lat="46.54972" lon="-0.80932">
        <ele>112</ele>
        <time>2023-10-30T12:04:59Z</time>
      </trkpt>
      <trkpt lat="46.54987" lon="-0.81236">
        <ele>117</ele>
        <time>2023-10-30T12:09:39Z</time>
      </trkpt>
      <trkpt lat="46.55003" lon="-0.81236">
        <ele>117</ele>
        <time>2023-10-30T12:10:00Z</time>
      </trkpt>
      <trkpt lat="46.5503" lon="-0.81193">
        <ele>117</ele>
        <time>2023-10-30T12:10:54Z</time>
      </trkpt>
      <trkpt lat="46.55234" lon="-0.81108">
        <ele>106</ele>
        <time>2023-10-30T12:15:37Z</time>
      </trkpt>
      <trkpt lat="46.55294" lon="-0.8102">
        <ele>106</ele>
        <time>2023-10-30T12:17:31Z</time>
      </trkpt>
      <trkpt lat="46.55362" lon="-0.80955">
        <ele>107</ele>
        <time>2023-10-30T12:19:19Z</time>
      </trkpt>
      <trkpt lat="46.55418" lon="-0.80927">
        <ele>110</ele>
        <time>2023-10-30T12:20:38Z</time>
      </trkpt>
      <trkpt lat="46.55462" lon="-0.80934">
        <ele>107</ele>
        <time>2023-10-30T12:21:37Z</time>
      </trkpt>
      <trkpt lat="46.55592" lon="-0.80829">
        <ele>96</ele>
        <time>2023-10-30T12:24:56Z</time>
      </trkpt>
      <trkpt lat="46.55632" lon="-0.80811">
        <ele>95</ele>
        <time>2023-10-30T12:25:52Z</time>
      </trkpt>
      <trkpt lat="46.55688" lon="-0.80884">
        <ele>98</ele>
        <time>2023-10-30T12:27:32Z</time>
      </trkpt>
      <trkpt lat="46.55737" lon="-0.80781">
        <ele>92</ele>
        <time>2023-10-30T12:29:27Z</time>
      </trkpt>
      <trkpt lat="46.55862" lon="-0.80629">
        <ele>84</ele>
        <time>2023-10-30T12:33:04Z</time>
      </trkpt>
      <trkpt lat="46.55883" lon="-0.80747">
        <ele>84</ele>
        <time>2023-10-30T12:34:56Z</time>
      </trkpt>
      <trkpt lat="46.55932" lon="-0.80867">
        <ele>86</ele>
        <time>2023-10-30T12:37:04Z</time>
      </trkpt>
      <trkpt lat="46.55923" lon="-0.80981">
        <ele>87</ele>
        <time>2023-10-30T12:38:50Z</time>
      </trkpt>
      <trkpt lat="46.55935" lon="-0.81084">
        <ele>88</ele>
        <time>2023-10-30T12:40:25Z</time>
      </trkpt>
      <trkpt lat="46.56026" lon="-0.81251">
        <ele>94</ele>
        <time>2023-10-30T12:43:41Z</time>
      </trkpt>
      <trkpt lat="46.5611" lon="-0.81429">
        <ele>95</ele>
        <time>2023-10-30T12:46:59Z</time>
      </trkpt>
      <trkpt lat="46.56147" lon="-0.81558">
        <ele>97</ele>
        <time>2023-10-30T12:49:07Z</time>
      </trkpt>
      <trkpt lat="46.5637" lon="-0.81711">
        <ele>95</ele>
        <time>2023-10-30T12:54:36Z</time>
      </trkpt>
      <trkpt lat="46.56398" lon="-0.81711">
        <ele>94</ele>
        <time>2023-10-30T12:55:14Z</time>
      </trkpt>
      <trkpt lat="46.56446" lon="-0.8168">
        <ele>94</ele>
        <time>2023-10-30T12:56:24Z</time>
      </trkpt>
      <trkpt lat="46.56473" lon="-0.8168">
        <ele>95</ele>
        <time>2023-10-30T12:57:00Z</time>
      </trkpt>
      <trkpt lat="46.56584" lon="-0.81783">
        <ele>103</ele>
        <time>2023-10-30T12:59:56Z</time>
      </trkpt>
      <trkpt lat="46.56706" lon="-0.81876">
        <ele>107</ele>
        <time>2023-10-30T13:02:59Z</time>
      </trkpt>
      <trkpt lat="46.56803" lon="-0.8197">
        <ele>99</ele>
        <time>2023-10-30T13:05:35Z</time>
      </trkpt>
      <trkpt lat="46.56879" lon="-0.82022">
        <ele>94</ele>
        <time>2023-10-30T13:07:27Z</time>
      </trkpt>
      <trkpt lat="46.56911" lon="-0.82077">
        <ele>94</ele>
        <time>2023-10-30T13:08:33Z</time>
      </trkpt>
      <trkpt lat="46.56945" lon="-0.82107">
        <ele>95</ele>
        <time>2023-10-30T13:09:26Z</time>
      </trkpt>
      <trkpt lat="46.56991" lon="-0.82107">
        <ele>96</ele>
        <time>2023-10-30T13:10:27Z</time>
      </trkpt>
      <trkpt lat="46.57042" lon="-0.82148">
        <ele>99</ele>
        <time>2023-10-30T13:11:45Z</time>
      </trkpt>
      <trkpt lat="46.57038" lon="-0.82296">
        <ele>108</ele>
        <time>2023-10-30T13:14:01Z</time>
      </trkpt>
      <trkpt lat="46.57057" lon="-0.82554">
        <ele>115</ele>
        <time>2023-10-30T13:17:59Z</time>
      </trkpt>
      <trkpt lat="46.57099" lon="-0.82743">
        <ele>120</ele>
        <time>2023-10-30T13:21:01Z</time>
      </trkpt>
      <trkpt lat="46.56954" lon="-0.82747">
        <ele>125</ele>
        <time>2023-10-30T13:24:15Z</time>
      </trkpt>
      <trkpt lat="46.56929" lon="-0.82743">
        <ele>126</ele>
        <time>2023-10-30T13:24:48Z</time>
      </trkpt>
      <trkpt lat="46.56885" lon="-0.82755">
        <ele>126</ele>
        <time>2023-10-30T13:25:48Z</time>
      </trkpt>
      <trkpt lat="46.56663" lon="-0.82771">
        <ele>125</ele>
        <time>2023-10-30T13:30:45Z</time>
      </trkpt>
      <trkpt lat="46.5665" lon="-0.82753">
        <ele>125</ele>
        <time>2023-10-30T13:31:09Z</time>
      </trkpt>
      <trkpt lat="46.56548" lon="-0.82792">
        <ele>124</ele>
        <time>2023-10-30T13:33:30Z</time>
      </trkpt>
      <trkpt lat="46.56461" lon="-0.82779">
        <ele>124</ele>
        <time>2023-10-30T13:35:26Z</time>
      </trkpt>
      <trkpt lat="46.56354" lon="-0.8273">
        <ele>125</ele>
        <time>2023-10-30T13:37:56Z</time>
      </trkpt>
      <trkpt lat="46.56281" lon="-0.82854">
        <ele>125</ele>
        <time>2023-10-30T13:40:26Z</time>
      </trkpt>
      <trkpt lat="46.56176" lon="-0.82987">
        <ele>128</ele>
        <time>2023-10-30T13:43:32Z</time>
      </trkpt>
      <trkpt lat="46.56076" lon="-0.83161">
        <ele>119</ele>
        <time>2023-10-30T13:47:00Z</time>
      </trkpt>
      <trkpt lat="46.55965" lon="-0.8329">
        <ele>114</ele>
        <time>2023-10-30T13:50:09Z</time>
      </trkpt>
      <trkpt lat="46.55909" lon="-0.83298">
        <ele>112</ele>
        <time>2023-10-30T13:51:24Z</time>
      </trkpt>
      <trkpt lat="46.55883" lon="-0.83311">
        <ele>110</ele>
        <time>2023-10-30T13:52:01Z</time>
      </trkpt>
      <trkpt lat="46.55781" lon="-0.83436">
        <ele>115</ele>
        <time>2023-10-30T13:54:59Z</time>
      </trkpt>
      <trkpt lat="46.55759" lon="-0.83459">
        <ele>116</ele>
        <time>2023-10-30T13:55:35Z</time>
      </trkpt>
      <trkpt lat="46.55726" lon="-0.83582">
        <ele>113</ele>
        <time>2023-10-30T13:57:36Z</time>
      </trkpt>
      <trkpt lat="46.55681" lon="-0.83637">
        <ele>113</ele>
        <time>2023-10-30T13:58:55Z</time>
      </trkpt>
      <trkpt lat="46.55672" lon="-0.83766">
        <ele>108</ele>
        <time>2023-10-30T14:00:54Z</time>
      </trkpt>
      <trkpt lat="46.55611" lon="-0.838">
        <ele>109</ele>
        <time>2023-10-30T14:02:21Z</time>
      </trkpt>
      <trkpt lat="46.5557" lon="-0.83841">
        <ele>107</ele>
        <time>2023-10-30T14:03:27Z</time>
      </trkpt>
      <trkpt lat="46.55545" lon="-0.8391">
        <ele>104</ele>
        <time>2023-10-30T14:04:39Z</time>
      </trkpt>
      <trkpt lat="46.55585" lon="-0.84097">
        <ele>100</ele>
        <time>2023-10-30T14:07:39Z</time>
      </trkpt>
      <trkpt lat="46.55749" lon="-0.84354">
        <ele>95</ele>
        <time>2023-10-30T14:13:00Z</time>
      </trkpt>
      <trkpt lat="46.5588" lon="-0.84412">
        <ele>93</ele>
        <time>2023-10-30T14:16:03Z</time>
      </trkpt>
      <trkpt lat="46.55893" lon="-0.84511">
        <ele>93</ele>
        <time>2023-10-30T14:17:36Z</time>
      </trkpt>
      <trkpt lat="46.5594" lon="-0.84607">
        <ele>95</ele>
        <time>2023-10-30T14:19:24Z</time>
      </trkpt>
      <trkpt lat="46.55992" lon="-0.84665">
        <ele>97</ele>
        <time>2023-10-30T14:20:51Z</time>
      </trkpt>
      <trkpt lat="46.5605" lon="-0.84762">
        <ele>96</ele>
        <time>2023-10-30T14:22:49Z</time>
      </trkpt>
      <trkpt lat="46.56116" lon="-0.84835">
        <ele>93</ele>
        <time>2023-10-30T14:24:40Z</time>
      </trkpt>
      <trkpt lat="46.5614" lon="-0.84938">
        <ele>91</ele>
        <time>2023-10-30T14:26:20Z</time>
      </trkpt>
      <trkpt lat="46.56138" lon="-0.85077">
        <ele>91</ele>
        <time>2023-10-30T14:28:27Z</time>
      </trkpt>
      <trkpt lat="46.56191" lon="-0.85189">
        <ele>94</ele>
        <time>2023-10-30T14:30:32Z</time>
      </trkpt>
      <trkpt lat="46.5623" lon="-0.85315">
        <ele>98</ele>
        <time>2023-10-30T14:32:39Z</time>
      </trkpt>
      <trkpt lat="46.56269" lon="-0.85416">
        <ele>101</ele>
        <time>2023-10-30T14:34:25Z</time>
      </trkpt>
      <trkpt lat="46.56342" lon="-0.85521">
        <ele>103</ele>
        <time>2023-10-30T14:36:42Z</time>
      </trkpt>
      <trkpt lat="46.56408" lon="-0.85566">
        <ele>104</ele>
        <time>2023-10-30T14:38:19Z</time>
      </trkpt>
      <trkpt lat="46.56472" lon="-0.85665">
        <ele>107</ele>
        <time>2023-10-30T14:40:24Z</time>
      </trkpt>
      <trkpt lat="46.56488" lon="-0.85704">
        <ele>108</ele>
        <time>2023-10-30T14:41:06Z</time>
      </trkpt>
      <trkpt lat="46.56352" lon="-0.85725">
        <ele>106</ele>
        <time>2023-10-30T14:44:08Z</time>
      </trkpt>
      <trkpt lat="46.56187" lon="-0.85948">
        <ele>107</ele>
        <time>2023-10-30T14:49:09Z</time>
      </trkpt>
      <trkpt lat="46.56101" lon="-0.86041">
        <ele>104</ele>
        <time>2023-10-30T14:51:32Z</time>
      </trkpt>
      <trkpt lat="46.56067" lon="-0.86092">
        <ele>104</ele>
        <time>2023-10-30T14:52:37Z</time>
      </trkpt>
      <trkpt lat="46.5589" lon="-0.86135">
        <ele>102</ele>
        <time>2023-10-30T14:56:36Z</time>
      </trkpt>
      <trkpt lat="46.55766" lon="-0.86107">
        <ele>100</ele>
        <time>2023-10-30T14:59:24Z</time>
      </trkpt>
      <trkpt lat="46.55701" lon="-0.86165">
        <ele>101</ele>
        <time>2023-10-30T15:01:05Z</time>
      </trkpt>
      <trkpt lat="46.55695" lon="-0.86249">
        <ele>100</ele>
        <time>2023-10-30T15:02:23Z</time>
      </trkpt>
      <trkpt lat="46.55709" lon="-0.86307">
        <ele>100</ele>
        <time>2023-10-30T15:03:19Z</time>
      </trkpt>
      <trkpt lat="46.55701" lon="-0.86365">
        <ele>98</ele>
        <time>2023-10-30T15:04:14Z</time>
      </trkpt>
      <trkpt lat="46.55656" lon="-0.86341">
        <ele>98</ele>
        <time>2023-10-30T15:05:18Z</time>
      </trkpt>
      <trkpt lat="46.55601" lon="-0.86317">
        <ele>99</ele>
        <time>2023-10-30T15:06:34Z</time>
      </trkpt>
      <trkpt lat="46.5548" lon="-0.8639">
        <ele>99</ele>
        <time>2023-10-30T15:09:29Z</time>
      </trkpt>
      <trkpt lat="46.55389" lon="-0.86388">
        <ele>95</ele>
        <time>2023-10-30T15:11:31Z</time>
      </trkpt>
      <trkpt lat="46.55334" lon="-0.86474">
        <ele>92</ele>
        <time>2023-10-30T15:13:18Z</time>
      </trkpt>
      <trkpt lat="46.55259" lon="-0.86427">
        <ele>88</ele>
        <time>2023-10-30T15:15:07Z</time>
      </trkpt>
      <trkpt lat="46.55232" lon="-0.86425">
        <ele>86</ele>
        <time>2023-10-30T15:15:43Z</time>
      </trkpt>
      <trkpt lat="46.55234" lon="-0.86474">
        <ele>85</ele>
        <time>2023-10-30T15:16:28Z</time>
      </trkpt>
      <trkpt lat="46.55248" lon="-0.86599">
        <ele>86</ele>
        <time>2023-10-30T15:18:25Z</time>
      </trkpt>
      <trkpt lat="46.55284" lon="-0.8659">
        <ele>88</ele>
        <time>2023-10-30T15:19:13Z</time>
      </trkpt>
      <trkpt lat="46.55328" lon="-0.86633">
        <ele>92</ele>
        <time>2023-10-30T15:20:24Z</time>
      </trkpt>
      <trkpt lat="46.55347" lon="-0.86687">
        <ele>92</ele>
        <time>2023-10-30T15:21:20Z</time>
      </trkpt>
      <trkpt lat="46.55389" lon="-0.86751">
        <ele>89</ele>
        <time>2023-10-30T15:22:41Z</time>
      </trkpt>
      <trkpt lat="46.55451" lon="-0.86762">
        <ele>92</ele>
        <time>2023-10-30T15:24:04Z</time>
      </trkpt>
      <trkpt lat="46.55473" lon="-0.86781">
        <ele>93</ele>
        <time>2023-10-30T15:24:38Z</time>
      </trkpt>
      <trkpt lat="46.55489" lon="-0.86832">
        <ele>93</ele>
        <time>2023-10-30T15:25:30Z</time>
      </trkpt>
      <trkpt lat="46.55486" lon="-0.86882">
        <ele>93</ele>
        <time>2023-10-30T15:26:16Z</time>
      </trkpt>
      <trkpt lat="46.55507" lon="-0.87068">
        <ele>86</ele>
        <time>2023-10-30T15:29:09Z</time>
      </trkpt>
      <trkpt lat="46.55535" lon="-0.87178">
        <ele>83</ele>
        <time>2023-10-30T15:30:57Z</time>
      </trkpt>
      <trkpt lat="46.55656" lon="-0.87358">
        <ele>81</ele>
        <time>2023-10-30T15:34:48Z</time>
      </trkpt>
      <trkpt lat="46.5562" lon="-0.87405">
        <ele>77</ele>
        <time>2023-10-30T15:35:52Z</time>
      </trkpt>
      <trkpt lat="46.55604" lon="-0.87476">
        <ele>74</ele>
        <time>2023-10-30T15:37:01Z</time>
      </trkpt>
      <trkpt lat="46.5558" lon="-0.87519">
        <ele>73</ele>
        <time>2023-10-30T15:37:51Z</time>
      </trkpt>
      <trkpt lat="46.55585" lon="-0.87556">
        <ele>72</ele>
        <time>2023-10-30T15:38:26Z</time>
      </trkpt>
      <trkpt lat="46.55622" lon="-0.87541">
        <ele>73</ele>
        <time>2023-10-30T15:39:17Z</time>
      </trkpt>
      <trkpt lat="46.55645" lon="-0.87682">
        <ele>71</ele>
        <time>2023-10-30T15:41:30Z</time>
      </trkpt>
      <trkpt lat="46.55757" lon="-0.87854">
        <ele>75</ele>
        <time>2023-10-30T15:45:08Z</time>
      </trkpt>
      <trkpt lat="46.55791" lon="-0.87875">
        <ele>78</ele>
        <time>2023-10-30T15:45:57Z</time>
      </trkpt>
      <trkpt lat="46.55791" lon="-0.87955">
        <ele>74</ele>
        <time>2023-10-30T15:47:10Z</time>
      </trkpt>
      <trkpt lat="46.55805" lon="-0.88008">
        <ele>71</ele>
        <time>2023-10-30T15:48:03Z</time>
      </trkpt>
      <trkpt lat="46.55828" lon="-0.88047">
        <ele>68</ele>
        <time>2023-10-30T15:48:50Z</time>
      </trkpt>
      <trkpt lat="46.55873" lon="-0.8809">
        <ele>64</ele>
        <time>2023-10-30T15:50:02Z</time>
      </trkpt>
      <trkpt lat="46.55914" lon="-0.88214">
        <ele>60</ele>
        <time>2023-10-30T15:52:08Z</time>
      </trkpt>
      <trkpt lat="46.55912" lon="-0.88277">
        <ele>58</ele>
        <time>2023-10-30T15:53:06Z</time>
      </trkpt>
      <trkpt lat="46.55918" lon="-0.88328">
        <ele>57</ele>
        <time>2023-10-30T15:53:53Z</time>
      </trkpt>
      <trkpt lat="46.55963" lon="-0.8848">
        <ele>60</ele>
        <time>2023-10-30T15:56:25Z</time>
      </trkpt>
      <trkpt lat="46.56072" lon="-0.88626">
        <ele>58</ele>
        <time>2023-10-30T15:59:43Z</time>
      </trkpt>
      <trkpt lat="46.56113" lon="-0.88809">
        <ele>58</ele>
        <time>2023-10-30T16:02:39Z</time>
      </trkpt>
      <trkpt lat="46.56196" lon="-0.8901">
        <ele>57</ele>
        <time>2023-10-30T16:06:14Z</time>
      </trkpt>
      <trkpt lat="46.56252" lon="-0.89083">
        <ele>54</ele>
        <time>2023-10-30T16:07:55Z</time>
      </trkpt>
      <trkpt lat="46.56309" lon="-0.8924">
        <ele>56</ele>
        <time>2023-10-30T16:10:38Z</time>
      </trkpt>
      <trkpt lat="46.56392" lon="-0.89435">
        <ele>53</ele>
        <time>2023-10-30T16:14:08Z</time>
      </trkpt>
      <trkpt lat="46.56399" lon="-0.89467">
        <ele>52</ele>
        <time>2023-10-30T16:14:39Z</time>
      </trkpt>
      <trkpt lat="46.56414" lon="-0.89474">
        <ele>51</ele>
        <time>2023-10-30T16:15:00Z</time>
      </trkpt>
      <trkpt lat="46.56405" lon="-0.89575">
        <ele>49</ele>
        <time>2023-10-30T16:16:33Z</time>
      </trkpt>
      <trkpt lat="46.5639" lon="-0.8959">
        <ele>49</ele>
        <time>2023-10-30T16:16:58Z</time>
      </trkpt>
      <trkpt lat="46.56382" lon="-0.89646">
        <ele>50</ele>
        <time>2023-10-30T16:17:50Z</time>
      </trkpt>
      <trkpt lat="46.56367" lon="-0.89699">
        <ele>50</ele>
        <time>2023-10-30T16:18:43Z</time>
      </trkpt>
      <trkpt lat="46.56373" lon="-0.89766">
        <ele>50</ele>
        <time>2023-10-30T16:19:45Z</time>
      </trkpt>
      <trkpt lat="46.5637" lon="-0.89944">
        <ele>50</ele>
        <time>2023-10-30T16:22:28Z</time>
      </trkpt>
      <trkpt lat="46.56336" lon="-0.90077">
        <ele>48</ele>
        <time>2023-10-30T16:24:38Z</time>
      </trkpt>
      <trkpt lat="46.56333" lon="-0.90133">
        <ele>49</ele>
        <time>2023-10-30T16:25:30Z</time>
      </trkpt>
      <trkpt lat="46.56264" lon="-0.90259">
        <ele>49</ele>
        <time>2023-10-30T16:27:58Z</time>
      </trkpt>
      <trkpt lat="46.56261" lon="-0.90336">
        <ele>53</ele>
        <time>2023-10-30T16:29:08Z</time>
      </trkpt>
      <trkpt lat="46.56213" lon="-0.90652">
        <ele>55</ele>
        <time>2023-10-30T16:34:05Z</time>
      </trkpt>
      <trkpt lat="46.56216" lon="-0.90776">
        <ele>57</ele>
        <time>2023-10-30T16:35:59Z</time>
      </trkpt>
      <trkpt lat="46.56156" lon="-0.90858">
        <ele>57</ele>
        <time>2023-10-30T16:37:49Z</time>
      </trkpt>
      <trkpt lat="46.561" lon="-0.90916">
        <ele>56</ele>
        <time>2023-10-30T16:39:21Z</time>
      </trkpt>
      <trkpt lat="46.56088" lon="-0.91047">
        <ele>58</ele>
        <time>2023-10-30T16:41:22Z</time>
      </trkpt>
      <trkpt lat="46.56103" lon="-0.91109">
        <ele>60</ele>
        <time>2023-10-30T16:42:22Z</time>
      </trkpt>
      <trkpt lat="46.56126" lon="-0.91317">
        <ele>60</ele>
        <time>2023-10-30T16:45:36Z</time>
      </trkpt>
      <trkpt lat="46.56205" lon="-0.91476">
        <ele>62</ele>
        <time>2023-10-30T16:48:36Z</time>
      </trkpt>
    </trkseg>
  </trk>
  <trk>
    <name><![CDATA[GRPMelusineJ8_SigournaisRochereauN_20.2km-12431499]]></name>
    <extensions>
      <line xmlns="http://www.topografix.com/GPX/gpx_style/0/2">
        <color>00FF00</color>
        <width>4</width>
      </line>
    </extensions>
    <trkseg>
      <trkpt lat="46.70679" lon="-0.98796">
        <ele>84</ele>
        <time>2023-10-30T09:48:51Z</time>
      </trkpt>
      <trkpt lat="46.705" lon="-0.99409">
        <ele>70</ele>
        <time>2023-10-30T09:59:01Z</time>
      </trkpt>
      <trkpt lat="46.70485" lon="-0.99752">
        <ele>62</ele>
        <time>2023-10-30T10:04:15Z</time>
      </trkpt>
      <trkpt lat="46.70687" lon="-1.00253">
        <ele>68</ele>
        <time>2023-10-30T10:13:07Z</time>
      </trkpt>
      <trkpt lat="46.70329" lon="-1.00635">
        <ele>80</ele>
        <time>2023-10-30T10:22:59Z</time>
      </trkpt>
      <trkpt lat="46.70196" lon="-1.00738">
        <ele>77</ele>
        <time>2023-10-30T10:26:20Z</time>
      </trkpt>
      <trkpt lat="46.70065" lon="-1.00707">
        <ele>77</ele>
        <time>2023-10-30T10:29:17Z</time>
      </trkpt>
      <trkpt lat="46.69954" lon="-1.00762">
        <ele>75</ele>
        <time>2023-10-30T10:31:54Z</time>
      </trkpt>
      <trkpt lat="46.69915" lon="-1.00701">
        <ele>75</ele>
        <time>2023-10-30T10:33:10Z</time>
      </trkpt>
      <trkpt lat="46.69811" lon="-1.00689">
        <ele>70</ele>
        <time>2023-10-30T10:35:29Z</time>
      </trkpt>
      <trkpt lat="46.69742" lon="-1.00775">
        <ele>58</ele>
        <time>2023-10-30T10:37:30Z</time>
      </trkpt>
      <trkpt lat="46.70362" lon="-1.01521">
        <ele>54</ele>
        <time>2023-10-30T10:55:23Z</time>
      </trkpt>
      <trkpt lat="46.70117" lon="-1.02189">
        <ele>71</ele>
        <time>2023-10-30T11:06:56Z</time>
      </trkpt>
      <trkpt lat="46.70437" lon="-1.02529">
        <ele>71</ele>
        <time>2023-10-30T11:15:45Z</time>
      </trkpt>
      <trkpt lat="46.70541" lon="-1.02808">
        <ele>72</ele>
        <time>2023-10-30T11:20:35Z</time>
      </trkpt>
      <trkpt lat="46.70662" lon="-1.02917">
        <ele>73</ele>
        <time>2023-10-30T11:23:45Z</time>
      </trkpt>
      <trkpt lat="46.71249" lon="-1.01418">
        <ele>69</ele>
        <time>2023-10-30T11:50:04Z</time>
      </trkpt>
      <trkpt lat="46.71692" lon="-1.00671">
        <ele>81</ele>
        <time>2023-10-30T12:05:08Z</time>
      </trkpt>
      <trkpt lat="46.72089" lon="-1.00301">
        <ele>81</ele>
        <time>2023-10-30T12:15:37Z</time>
      </trkpt>
      <trkpt lat="46.72605" lon="-0.99858">
        <ele>88</ele>
        <time>2023-10-30T12:28:56Z</time>
      </trkpt>
      <trkpt lat="46.72838" lon="-0.99804">
        <ele>96</ele>
        <time>2023-10-30T12:34:11Z</time>
      </trkpt>
      <trkpt lat="46.7284" lon="-0.99712">
        <ele>94</ele>
        <time>2023-10-30T12:35:35Z</time>
      </trkpt>
      <trkpt lat="46.729" lon="-0.99524">
        <ele>90</ele>
        <time>2023-10-30T12:38:45Z</time>
      </trkpt>
      <trkpt lat="46.72959" lon="-0.99464">
        <ele>90</ele>
        <time>2023-10-30T12:40:21Z</time>
      </trkpt>
      <trkpt lat="46.72832" lon="-0.9922">
        <ele>89</ele>
        <time>2023-10-30T12:45:01Z</time>
      </trkpt>
      <trkpt lat="46.72828" lon="-0.99065">
        <ele>90</ele>
        <time>2023-10-30T12:47:23Z</time>
      </trkpt>
      <trkpt lat="46.72726" lon="-0.98996">
        <ele>90</ele>
        <time>2023-10-30T12:49:53Z</time>
      </trkpt>
      <trkpt lat="46.72545" lon="-0.98568">
        <ele>91</ele>
        <time>2023-10-30T12:57:33Z</time>
      </trkpt>
      <trkpt lat="46.72281" lon="-0.98341">
        <ele>91</ele>
        <time>2023-10-30T13:04:22Z</time>
      </trkpt>
      <trkpt lat="46.72266" lon="-0.9821">
        <ele>93</ele>
        <time>2023-10-30T13:06:23Z</time>
      </trkpt>
      <trkpt lat="46.72312" lon="-0.97937">
        <ele>99</ele>
        <time>2023-10-30T13:10:40Z</time>
      </trkpt>
      <trkpt lat="46.72439" lon="-0.97801">
        <ele>103</ele>
        <time>2023-10-30T13:14:11Z</time>
      </trkpt>
      <trkpt lat="46.72335" lon="-0.97685">
        <ele>104</ele>
        <time>2023-10-30T13:17:05Z</time>
      </trkpt>
      <trkpt lat="46.72717" lon="-0.97145">
        <ele>101</ele>
        <time>2023-10-30T13:28:55Z</time>
      </trkpt>
      <trkpt lat="46.72634" lon="-0.96508">
        <ele>84</ele>
        <time>2023-10-30T13:38:48Z</time>
      </trkpt>
      <trkpt lat="46.72635" lon="-0.96318">
        <ele>77</ele>
        <time>2023-10-30T13:41:42Z</time>
      </trkpt>
      <trkpt lat="46.72689" lon="-0.9612">
        <ele>63</ele>
        <time>2023-10-30T13:44:57Z</time>
      </trkpt>
      <trkpt lat="46.72612" lon="-0.96141">
        <ele>60</ele>
        <time>2023-10-30T13:46:42Z</time>
      </trkpt>
      <trkpt lat="46.72557" lon="-0.961">
        <ele>58</ele>
        <time>2023-10-30T13:48:04Z</time>
      </trkpt>
      <trkpt lat="46.72401" lon="-0.96186">
        <ele>58</ele>
        <time>2023-10-30T13:51:46Z</time>
      </trkpt>
      <trkpt lat="46.72254" lon="-0.96143">
        <ele>58</ele>
        <time>2023-10-30T13:55:07Z</time>
      </trkpt>
      <trkpt lat="46.72117" lon="-0.95982">
        <ele>59</ele>
        <time>2023-10-30T13:59:01Z</time>
      </trkpt>
      <trkpt lat="46.71958" lon="-0.95601">
        <ele>63</ele>
        <time>2023-10-30T14:05:49Z</time>
      </trkpt>
      <trkpt lat="46.71608" lon="-0.95438">
        <ele>68</ele>
        <time>2023-10-30T14:14:00Z</time>
      </trkpt>
      <trkpt lat="46.71456" lon="-0.95566">
        <ele>59</ele>
        <time>2023-10-30T14:17:54Z</time>
      </trkpt>
      <trkpt lat="46.7126" lon="-0.95457">
        <ele>53</ele>
        <time>2023-10-30T14:22:34Z</time>
      </trkpt>
      <trkpt lat="46.71181" lon="-0.9553">
        <ele>59</ele>
        <time>2023-10-30T14:24:39Z</time>
      </trkpt>
      <trkpt lat="46.7116" lon="-0.95723">
        <ele>65</ele>
        <time>2023-10-30T14:27:37Z</time>
      </trkpt>
      <trkpt lat="46.71083" lon="-0.95877">
        <ele>68</ele>
        <time>2023-10-30T14:30:32Z</time>
      </trkpt>
      <trkpt lat="46.70993" lon="-0.95909">
        <ele>58</ele>
        <time>2023-10-30T14:32:35Z</time>
      </trkpt>
      <trkpt lat="46.70919" lon="-0.96124">
        <ele>55</ele>
        <time>2023-10-30T14:36:16Z</time>
      </trkpt>
      <trkpt lat="46.7094" lon="-0.96193">
        <ele>57</ele>
        <time>2023-10-30T14:37:25Z</time>
      </trkpt>
      <trkpt lat="46.70908" lon="-0.96224">
        <ele>55</ele>
        <time>2023-10-30T14:38:16Z</time>
      </trkpt>
      <trkpt lat="46.71181" lon="-0.9602">
        <ele>77</ele>
        <time>2023-10-30T14:45:05Z</time>
      </trkpt>
      <trkpt lat="46.71444" lon="-0.96429">
        <ele>88</ele>
        <time>2023-10-30T14:53:38Z</time>
      </trkpt>
      <trkpt lat="46.71844" lon="-0.95731">
        <ele>59</ele>
        <time>2023-10-30T15:07:31Z</time>
      </trkpt>
      <trkpt lat="46.71998" lon="-0.96569">
        <ele>93</ele>
        <time>2023-10-30T15:20:44Z</time>
      </trkpt>
      <trkpt lat="46.71773" lon="-0.96799">
        <ele>92</ele>
        <time>2023-10-30T15:26:51Z</time>
      </trkpt>
      <trkpt lat="46.72014" lon="-0.97163">
        <ele>97</ele>
        <time>2023-10-30T15:34:34Z</time>
      </trkpt>
      <trkpt lat="46.72189" lon="-0.97236">
        <ele>97</ele>
        <time>2023-10-30T15:38:37Z</time>
      </trkpt>
      <trkpt lat="46.72297" lon="-0.97495">
        <ele>101</ele>
        <time>2023-10-30T15:43:14Z</time>
      </trkpt>
      <trkpt lat="46.7234" lon="-0.97667">
        <ele>104</ele>
        <time>2023-10-30T15:46:02Z</time>
      </trkpt>
      <trkpt lat="46.71879" lon="-0.97903">
        <ele>92</ele>
        <time>2023-10-30T15:56:54Z</time>
      </trkpt>
      <trkpt lat="46.71619" lon="-0.9811">
        <ele>87</ele>
        <time>2023-10-30T16:03:29Z</time>
      </trkpt>
      <trkpt lat="46.71536" lon="-0.98219">
        <ele>84</ele>
        <time>2023-10-30T16:05:58Z</time>
      </trkpt>
      <trkpt lat="46.71249" lon="-0.98316">
        <ele>88</ele>
        <time>2023-10-30T16:12:31Z</time>
      </trkpt>
      <trkpt lat="46.71095" lon="-0.98125">
        <ele>89</ele>
        <time>2023-10-30T16:17:01Z</time>
      </trkpt>
      <trkpt lat="46.71101" lon="-0.98088">
        <ele>88</ele>
        <time>2023-10-30T16:17:36Z</time>
      </trkpt>
      <trkpt lat="46.71051" lon="-0.98009">
        <ele>88</ele>
        <time>2023-10-30T16:19:14Z</time>
      </trkpt>
      <trkpt lat="46.71024" lon="-0.98044">
        <ele>89</ele>
        <time>2023-10-30T16:20:02Z</time>
      </trkpt>
      <trkpt lat="46.7067" lon="-0.98723">
        <ele>89</ele>
        <time>2023-10-30T16:33:03Z</time>
      </trkpt>
    </trkseg>
  </trk>
  <trk>
    <name><![CDATA[GRPMelusineJ5_StMichelC_Vouvant_20.5km-12434239]]></name>
    <extensions>
      <line xmlns="http://www.topografix.com/GPX/gpx_style/0/2">
        <color>FF0000</color>
        <width>4</width>
      </line>
    </extensions>
    <trkseg>
      <trkpt lat="46.48539" lon="-0.75205">
        <ele>91</ele>
        <time>2023-10-30T09:48:30Z</time>
      </trkpt>
      <trkpt lat="46.48451" lon="-0.75437">
        <ele>83</ele>
        <time>2023-10-30T09:52:33Z</time>
      </trkpt>
      <trkpt lat="46.48622" lon="-0.756">
        <ele>84</ele>
        <time>2023-10-30T09:57:06Z</time>
      </trkpt>
      <trkpt lat="46.48581" lon="-0.7614">
        <ele>65</ele>
        <time>2023-10-30T10:05:26Z</time>
      </trkpt>
      <trkpt lat="46.48084" lon="-0.7663">
        <ele>41</ele>
        <time>2023-10-30T10:18:47Z</time>
      </trkpt>
      <trkpt lat="46.48232" lon="-0.77136">
        <ele>50</ele>
        <time>2023-10-30T10:27:12Z</time>
      </trkpt>
      <trkpt lat="46.48888" lon="-0.76261">
        <ele>79</ele>
        <time>2023-10-30T10:47:01Z</time>
      </trkpt>
      <trkpt lat="46.49296" lon="-0.76578">
        <ele>80</ele>
        <time>2023-10-30T10:57:18Z</time>
      </trkpt>
      <trkpt lat="46.49319" lon="-0.76818">
        <ele>70</ele>
        <time>2023-10-30T11:01:01Z</time>
      </trkpt>
      <trkpt lat="46.49473" lon="-0.77024">
        <ele>84</ele>
        <time>2023-10-30T11:05:40Z</time>
      </trkpt>
      <trkpt lat="46.49491" lon="-0.77351">
        <ele>82</ele>
        <time>2023-10-30T11:10:42Z</time>
      </trkpt>
      <trkpt lat="46.4965" lon="-0.77436">
        <ele>80</ele>
        <time>2023-10-30T11:14:28Z</time>
      </trkpt>
      <trkpt lat="46.49455" lon="-0.78192">
        <ele>75</ele>
        <time>2023-10-30T11:26:49Z</time>
      </trkpt>
      <trkpt lat="46.49502" lon="-0.78355">
        <ele>75</ele>
        <time>2023-10-30T11:29:32Z</time>
      </trkpt>
      <trkpt lat="46.49627" lon="-0.7826">
        <ele>74</ele>
        <time>2023-10-30T11:32:40Z</time>
      </trkpt>
      <trkpt lat="46.50058" lon="-0.78604">
        <ele>39</ele>
        <time>2023-10-30T11:43:36Z</time>
      </trkpt>
      <trkpt lat="46.49946" lon="-0.78346">
        <ele>46</ele>
        <time>2023-10-30T11:48:16Z</time>
      </trkpt>
      <trkpt lat="46.50117" lon="-0.78432">
        <ele>27</ele>
        <time>2023-10-30T11:52:18Z</time>
      </trkpt>
      <trkpt lat="46.50383" lon="-0.79316">
        <ele>38</ele>
        <time>2023-10-30T12:07:04Z</time>
      </trkpt>
      <trkpt lat="46.50153" lon="-0.79392">
        <ele>25</ele>
        <time>2023-10-30T12:12:19Z</time>
      </trkpt>
      <trkpt lat="46.50013" lon="-0.79514">
        <ele>21</ele>
        <time>2023-10-30T12:15:57Z</time>
      </trkpt>
      <trkpt lat="46.50045" lon="-0.79626">
        <ele>34</ele>
        <time>2023-10-30T12:17:48Z</time>
      </trkpt>
      <trkpt lat="46.50147" lon="-0.7965">
        <ele>46</ele>
        <time>2023-10-30T12:20:06Z</time>
      </trkpt>
      <trkpt lat="46.50631" lon="-0.79505">
        <ele>88</ele>
        <time>2023-10-30T12:31:06Z</time>
      </trkpt>
      <trkpt lat="46.50578" lon="-0.79084">
        <ele>85</ele>
        <time>2023-10-30T12:37:39Z</time>
      </trkpt>
      <trkpt lat="46.51062" lon="-0.78844">
        <ele>86</ele>
        <time>2023-10-30T12:49:01Z</time>
      </trkpt>
      <trkpt lat="46.51251" lon="-0.79273">
        <ele>80</ele>
        <time>2023-10-30T12:56:49Z</time>
      </trkpt>
      <trkpt lat="46.51393" lon="-0.78938">
        <ele>72</ele>
        <time>2023-10-30T13:02:50Z</time>
      </trkpt>
      <trkpt lat="46.51487" lon="-0.78921">
        <ele>70</ele>
        <time>2023-10-30T13:04:57Z</time>
      </trkpt>
      <trkpt lat="46.51417" lon="-0.78732">
        <ele>57</ele>
        <time>2023-10-30T13:08:14Z</time>
      </trkpt>
      <trkpt lat="46.5147" lon="-0.78449">
        <ele>49</ele>
        <time>2023-10-30T13:12:43Z</time>
      </trkpt>
      <trkpt lat="46.51777" lon="-0.78329">
        <ele>51</ele>
        <time>2023-10-30T13:19:47Z</time>
      </trkpt>
      <trkpt lat="46.5196" lon="-0.78415">
        <ele>57</ele>
        <time>2023-10-30T13:24:04Z</time>
      </trkpt>
      <trkpt lat="46.52102" lon="-0.7875">
        <ele>75</ele>
        <time>2023-10-30T13:30:05Z</time>
      </trkpt>
      <trkpt lat="46.52297" lon="-0.78741">
        <ele>90</ele>
        <time>2023-10-30T13:34:26Z</time>
      </trkpt>
      <trkpt lat="46.52946" lon="-0.7778">
        <ele>95</ele>
        <time>2023-10-30T13:55:02Z</time>
      </trkpt>
      <trkpt lat="46.53136" lon="-0.77462">
        <ele>78</ele>
        <time>2023-10-30T14:01:29Z</time>
      </trkpt>
      <trkpt lat="46.53273" lon="-0.77386">
        <ele>55</ele>
        <time>2023-10-30T14:04:44Z</time>
      </trkpt>
      <trkpt lat="46.53245" lon="-0.77544">
        <ele>61</ele>
        <time>2023-10-30T14:07:14Z</time>
      </trkpt>
      <trkpt lat="46.53372" lon="-0.77335">
        <ele>51</ele>
        <time>2023-10-30T14:11:30Z</time>
      </trkpt>
      <trkpt lat="46.53284" lon="-0.77222">
        <ele>62</ele>
        <time>2023-10-30T14:14:07Z</time>
      </trkpt>
      <trkpt lat="46.53052" lon="-0.77192">
        <ele>51</ele>
        <time>2023-10-30T14:19:18Z</time>
      </trkpt>
      <trkpt lat="46.53024" lon="-0.76942">
        <ele>51</ele>
        <time>2023-10-30T14:23:10Z</time>
      </trkpt>
      <trkpt lat="46.53108" lon="-0.76896">
        <ele>72</ele>
        <time>2023-10-30T14:25:10Z</time>
      </trkpt>
      <trkpt lat="46.53158" lon="-0.76712">
        <ele>85</ele>
        <time>2023-10-30T14:28:12Z</time>
      </trkpt>
      <trkpt lat="46.53" lon="-0.76564">
        <ele>93</ele>
        <time>2023-10-30T14:32:22Z</time>
      </trkpt>
      <trkpt lat="46.52936" lon="-0.76727">
        <ele>63</ele>
        <time>2023-10-30T14:35:15Z</time>
      </trkpt>
      <trkpt lat="46.5275" lon="-0.76835">
        <ele>51</ele>
        <time>2023-10-30T14:39:42Z</time>
      </trkpt>
      <trkpt lat="46.52677" lon="-0.76753">
        <ele>47</ele>
        <time>2023-10-30T14:41:45Z</time>
      </trkpt>
      <trkpt lat="46.52919" lon="-0.76431">
        <ele>56</ele>
        <time>2023-10-30T14:49:03Z</time>
      </trkpt>
      <trkpt lat="46.5295" lon="-0.76299">
        <ele>57</ele>
        <time>2023-10-30T14:51:11Z</time>
      </trkpt>
      <trkpt lat="46.52905" lon="-0.76115">
        <ele>44</ele>
        <time>2023-10-30T14:54:10Z</time>
      </trkpt>
      <trkpt lat="46.53077" lon="-0.76079">
        <ele>46</ele>
        <time>2023-10-30T14:58:02Z</time>
      </trkpt>
      <trkpt lat="46.53196" lon="-0.76243">
        <ele>66</ele>
        <time>2023-10-30T15:01:41Z</time>
      </trkpt>
      <trkpt lat="46.53389" lon="-0.76049">
        <ele>49</ele>
        <time>2023-10-30T15:06:54Z</time>
      </trkpt>
      <trkpt lat="46.53575" lon="-0.761">
        <ele>48</ele>
        <time>2023-10-30T15:11:07Z</time>
      </trkpt>
      <trkpt lat="46.53793" lon="-0.75901">
        <ele>59</ele>
        <time>2023-10-30T15:16:50Z</time>
      </trkpt>
      <trkpt lat="46.5406" lon="-0.75855">
        <ele>70</ele>
        <time>2023-10-30T15:22:49Z</time>
      </trkpt>
      <trkpt lat="46.5439" lon="-0.75559">
        <ele>65</ele>
        <time>2023-10-30T15:31:26Z</time>
      </trkpt>
      <trkpt lat="46.54678" lon="-0.75191">
        <ele>63</ele>
        <time>2023-10-30T15:39:58Z</time>
      </trkpt>
      <trkpt lat="46.55106" lon="-0.75242">
        <ele>76</ele>
        <time>2023-10-30T15:49:31Z</time>
      </trkpt>
      <trkpt lat="46.55264" lon="-0.75344">
        <ele>77</ele>
        <time>2023-10-30T15:53:22Z</time>
      </trkpt>
      <trkpt lat="46.55552" lon="-0.75314">
        <ele>80</ele>
        <time>2023-10-30T15:59:47Z</time>
      </trkpt>
      <trkpt lat="46.55692" lon="-0.75472">
        <ele>79</ele>
        <time>2023-10-30T16:03:44Z</time>
      </trkpt>
      <trkpt lat="46.55945" lon="-0.75492">
        <ele>87</ele>
        <time>2023-10-30T16:09:22Z</time>
      </trkpt>
      <trkpt lat="46.55885" lon="-0.75686">
        <ele>87</ele>
        <time>2023-10-30T16:12:37Z</time>
      </trkpt>
      <trkpt lat="46.56081" lon="-0.7586">
        <ele>89</ele>
        <time>2023-10-30T16:17:43Z</time>
      </trkpt>
      <trkpt lat="46.55938" lon="-0.76309">
        <ele>81</ele>
        <time>2023-10-30T16:25:17Z</time>
      </trkpt>
      <trkpt lat="46.55955" lon="-0.76656">
        <ele>77</ele>
        <time>2023-10-30T16:30:37Z</time>
      </trkpt>
      <trkpt lat="46.56124" lon="-0.76595">
        <ele>77</ele>
        <time>2023-10-30T16:34:29Z</time>
      </trkpt>
      <trkpt lat="46.56286" lon="-0.76689">
        <ele>79</ele>
        <time>2023-10-30T16:38:22Z</time>
      </trkpt>
    </trkseg>
  </trk>
  <trk>
    <name><![CDATA[GRPMelusineJ7_StLaurentS_BazogesP_20.7km-12434251]]></name>
    <extensions>
      <line xmlns="http://www.topografix.com/GPX/gpx_style/0/2">
        <color>00FFFF</color>
        <width>4</width>
      </line>
    </extensions>
    <trkseg>
      <trkpt lat="46.56205" lon="-0.91476">
        <ele>62</ele>
        <time>2023-10-30T09:48:12Z</time>
      </trkpt>
      <trkpt lat="46.5614" lon="-0.91523">
        <ele>58</ele>
        <time>2023-10-30T09:49:49Z</time>
      </trkpt>
      <trkpt lat="46.5614" lon="-0.91772">
        <ele>60</ele>
        <time>2023-10-30T09:53:37Z</time>
      </trkpt>
      <trkpt lat="46.56197" lon="-0.92087">
        <ele>56</ele>
        <time>2023-10-30T09:58:36Z</time>
      </trkpt>
      <trkpt lat="46.56452" lon="-0.92338">
        <ele>69</ele>
        <time>2023-10-30T10:05:27Z</time>
      </trkpt>
      <trkpt lat="46.56562" lon="-0.92592">
        <ele>75</ele>
        <time>2023-10-30T10:10:03Z</time>
      </trkpt>
      <trkpt lat="46.56573" lon="-0.92598">
        <ele>75</ele>
        <time>2023-10-30T10:10:18Z</time>
      </trkpt>
      <trkpt lat="46.56666" lon="-0.92459">
        <ele>76</ele>
        <time>2023-10-30T10:13:16Z</time>
      </trkpt>
      <trkpt lat="46.56694" lon="-0.92396">
        <ele>77</ele>
        <time>2023-10-30T10:14:25Z</time>
      </trkpt>
      <trkpt lat="46.56874" lon="-0.92399">
        <ele>77</ele>
        <time>2023-10-30T10:18:25Z</time>
      </trkpt>
      <trkpt lat="46.57087" lon="-0.92557">
        <ele>75</ele>
        <time>2023-10-30T10:23:44Z</time>
      </trkpt>
      <trkpt lat="46.57129" lon="-0.92575">
        <ele>73</ele>
        <time>2023-10-30T10:24:43Z</time>
      </trkpt>
      <trkpt lat="46.57171" lon="-0.92575">
        <ele>71</ele>
        <time>2023-10-30T10:25:39Z</time>
      </trkpt>
      <trkpt lat="46.57217" lon="-0.92551">
        <ele>69</ele>
        <time>2023-10-30T10:26:44Z</time>
      </trkpt>
      <trkpt lat="46.57311" lon="-0.92514">
        <ele>69</ele>
        <time>2023-10-30T10:28:54Z</time>
      </trkpt>
      <trkpt lat="46.57495" lon="-0.9242">
        <ele>77</ele>
        <time>2023-10-30T10:33:14Z</time>
      </trkpt>
      <trkpt lat="46.57517" lon="-0.92497">
        <ele>77</ele>
        <time>2023-10-30T10:34:31Z</time>
      </trkpt>
      <trkpt lat="46.57538" lon="-0.9251">
        <ele>77</ele>
        <time>2023-10-30T10:35:01Z</time>
      </trkpt>
      <trkpt lat="46.57717" lon="-0.92457">
        <ele>77</ele>
        <time>2023-10-30T10:39:05Z</time>
      </trkpt>
      <trkpt lat="46.57746" lon="-0.92465">
        <ele>76</ele>
        <time>2023-10-30T10:39:44Z</time>
      </trkpt>
      <trkpt lat="46.57938" lon="-0.9262">
        <ele>70</ele>
        <time>2023-10-30T10:44:37Z</time>
      </trkpt>
      <trkpt lat="46.57982" lon="-0.92665">
        <ele>67</ele>
        <time>2023-10-30T10:45:49Z</time>
      </trkpt>
      <trkpt lat="46.58121" lon="-0.92826">
        <ele>69</ele>
        <time>2023-10-30T10:49:46Z</time>
      </trkpt>
      <trkpt lat="46.5824" lon="-0.92888">
        <ele>72</ele>
        <time>2023-10-30T10:52:35Z</time>
      </trkpt>
      <trkpt lat="46.58358" lon="-0.92969">
        <ele>74</ele>
        <time>2023-10-30T10:55:29Z</time>
      </trkpt>
      <trkpt lat="46.58525" lon="-0.9301">
        <ele>78</ele>
        <time>2023-10-30T10:59:15Z</time>
      </trkpt>
      <trkpt lat="46.58545" lon="-0.93062">
        <ele>79</ele>
        <time>2023-10-30T11:00:10Z</time>
      </trkpt>
      <trkpt lat="46.58579" lon="-0.93105">
        <ele>80</ele>
        <time>2023-10-30T11:01:10Z</time>
      </trkpt>
      <trkpt lat="46.58663" lon="-0.93156">
        <ele>83</ele>
        <time>2023-10-30T11:03:11Z</time>
      </trkpt>
      <trkpt lat="46.58724" lon="-0.93167">
        <ele>83</ele>
        <time>2023-10-30T11:04:33Z</time>
      </trkpt>
      <trkpt lat="46.5877" lon="-0.93199">
        <ele>84</ele>
        <time>2023-10-30T11:05:41Z</time>
      </trkpt>
      <trkpt lat="46.58771" lon="-0.93184">
        <ele>84</ele>
        <time>2023-10-30T11:05:55Z</time>
      </trkpt>
      <trkpt lat="46.58964" lon="-0.93323">
        <ele>92</ele>
        <time>2023-10-30T11:10:42Z</time>
      </trkpt>
      <trkpt lat="46.5906" lon="-0.93229">
        <ele>94</ele>
        <time>2023-10-30T11:13:17Z</time>
      </trkpt>
      <trkpt lat="46.59154" lon="-0.93379">
        <ele>98</ele>
        <time>2023-10-30T11:16:23Z</time>
      </trkpt>
      <trkpt lat="46.59206" lon="-0.93338">
        <ele>98</ele>
        <time>2023-10-30T11:17:42Z</time>
      </trkpt>
      <trkpt lat="46.59293" lon="-0.93242">
        <ele>100</ele>
        <time>2023-10-30T11:20:08Z</time>
      </trkpt>
      <trkpt lat="46.59356" lon="-0.93268">
        <ele>100</ele>
        <time>2023-10-30T11:21:35Z</time>
      </trkpt>
      <trkpt lat="46.5937" lon="-0.93291">
        <ele>100</ele>
        <time>2023-10-30T11:22:03Z</time>
      </trkpt>
      <trkpt lat="46.59417" lon="-0.93388">
        <ele>97</ele>
        <time>2023-10-30T11:23:52Z</time>
      </trkpt>
      <trkpt lat="46.59516" lon="-0.93308">
        <ele>97</ele>
        <time>2023-10-30T11:26:23Z</time>
      </trkpt>
      <trkpt lat="46.59557" lon="-0.93283">
        <ele>97</ele>
        <time>2023-10-30T11:27:22Z</time>
      </trkpt>
      <trkpt lat="46.59607" lon="-0.93263">
        <ele>98</ele>
        <time>2023-10-30T11:28:32Z</time>
      </trkpt>
      <trkpt lat="46.5965" lon="-0.93268">
        <ele>99</ele>
        <time>2023-10-30T11:29:29Z</time>
      </trkpt>
      <trkpt lat="46.59703" lon="-0.93253">
        <ele>99</ele>
        <time>2023-10-30T11:30:41Z</time>
      </trkpt>
      <trkpt lat="46.59729" lon="-0.93212">
        <ele>100</ele>
        <time>2023-10-30T11:31:32Z</time>
      </trkpt>
      <trkpt lat="46.59766" lon="-0.93193">
        <ele>100</ele>
        <time>2023-10-30T11:32:25Z</time>
      </trkpt>
      <trkpt lat="46.59797" lon="-0.93124">
        <ele>101</ele>
        <time>2023-10-30T11:33:40Z</time>
      </trkpt>
      <trkpt lat="46.59833" lon="-0.93081">
        <ele>102</ele>
        <time>2023-10-30T11:34:43Z</time>
      </trkpt>
      <trkpt lat="46.5985" lon="-0.93068">
        <ele>103</ele>
        <time>2023-10-30T11:35:08Z</time>
      </trkpt>
      <trkpt lat="46.60039" lon="-0.9319">
        <ele>110</ele>
        <time>2023-10-30T11:39:44Z</time>
      </trkpt>
      <trkpt lat="46.60046" lon="-0.93214">
        <ele>111</ele>
        <time>2023-10-30T11:40:08Z</time>
      </trkpt>
      <trkpt lat="46.60156" lon="-0.93098">
        <ele>111</ele>
        <time>2023-10-30T11:43:09Z</time>
      </trkpt>
      <trkpt lat="46.60243" lon="-0.92922">
        <ele>111</ele>
        <time>2023-10-30T11:46:28Z</time>
      </trkpt>
      <trkpt lat="46.60302" lon="-0.92862">
        <ele>110</ele>
        <time>2023-10-30T11:48:04Z</time>
      </trkpt>
      <trkpt lat="46.6034" lon="-0.92862">
        <ele>110</ele>
        <time>2023-10-30T11:48:55Z</time>
      </trkpt>
      <trkpt lat="46.60598" lon="-0.92682">
        <ele>117</ele>
        <time>2023-10-30T11:55:17Z</time>
      </trkpt>
      <trkpt lat="46.6061" lon="-0.9268">
        <ele>117</ele>
        <time>2023-10-30T11:55:33Z</time>
      </trkpt>
      <trkpt lat="46.60725" lon="-0.92484">
        <ele>122</ele>
        <time>2023-10-30T11:59:29Z</time>
      </trkpt>
      <trkpt lat="46.60742" lon="-0.92472">
        <ele>123</ele>
        <time>2023-10-30T11:59:54Z</time>
      </trkpt>
      <trkpt lat="46.60798" lon="-0.92547">
        <ele>120</ele>
        <time>2023-10-30T12:01:36Z</time>
      </trkpt>
      <trkpt lat="46.60907" lon="-0.92474">
        <ele>122</ele>
        <time>2023-10-30T12:04:16Z</time>
      </trkpt>
      <trkpt lat="46.60968" lon="-0.92448">
        <ele>122</ele>
        <time>2023-10-30T12:05:41Z</time>
      </trkpt>
      <trkpt lat="46.60994" lon="-0.92484">
        <ele>121</ele>
        <time>2023-10-30T12:06:29Z</time>
      </trkpt>
      <trkpt lat="46.61024" lon="-0.92478">
        <ele>121</ele>
        <time>2023-10-30T12:07:09Z</time>
      </trkpt>
      <trkpt lat="46.61095" lon="-0.92587">
        <ele>123</ele>
        <time>2023-10-30T12:09:27Z</time>
      </trkpt>
      <trkpt lat="46.6113" lon="-0.92669">
        <ele>125</ele>
        <time>2023-10-30T12:10:55Z</time>
      </trkpt>
      <trkpt lat="46.6114" lon="-0.92759">
        <ele>130</ele>
        <time>2023-10-30T12:12:19Z</time>
      </trkpt>
      <trkpt lat="46.61164" lon="-0.92802">
        <ele>131</ele>
        <time>2023-10-30T12:13:10Z</time>
      </trkpt>
      <trkpt lat="46.61242" lon="-0.92838">
        <ele>130</ele>
        <time>2023-10-30T12:14:59Z</time>
      </trkpt>
      <trkpt lat="46.61298" lon="-0.92901">
        <ele>130</ele>
        <time>2023-10-30T12:16:33Z</time>
      </trkpt>
      <trkpt lat="46.61388" lon="-0.92978">
        <ele>127</ele>
        <time>2023-10-30T12:18:52Z</time>
      </trkpt>
      <trkpt lat="46.6149" lon="-0.93145">
        <ele>126</ele>
        <time>2023-10-30T12:22:17Z</time>
      </trkpt>
      <trkpt lat="46.61669" lon="-0.93285">
        <ele>119</ele>
        <time>2023-10-30T12:26:48Z</time>
      </trkpt>
      <trkpt lat="46.61725" lon="-0.93298">
        <ele>118</ele>
        <time>2023-10-30T12:28:04Z</time>
      </trkpt>
      <trkpt lat="46.61751" lon="-0.93293">
        <ele>117</ele>
        <time>2023-10-30T12:28:39Z</time>
      </trkpt>
      <trkpt lat="46.61728" lon="-0.93328">
        <ele>118</ele>
        <time>2023-10-30T12:29:24Z</time>
      </trkpt>
      <trkpt lat="46.61703" lon="-0.93414">
        <ele>119</ele>
        <time>2023-10-30T12:30:49Z</time>
      </trkpt>
      <trkpt lat="46.61718" lon="-0.93512">
        <ele>116</ele>
        <time>2023-10-30T12:32:21Z</time>
      </trkpt>
      <trkpt lat="46.61714" lon="-0.93806">
        <ele>115</ele>
        <time>2023-10-30T12:36:51Z</time>
      </trkpt>
      <trkpt lat="46.61736" lon="-0.94001">
        <ele>112</ele>
        <time>2023-10-30T12:39:52Z</time>
      </trkpt>
      <trkpt lat="46.61665" lon="-0.94021">
        <ele>114</ele>
        <time>2023-10-30T12:41:28Z</time>
      </trkpt>
      <trkpt lat="46.61622" lon="-0.94072">
        <ele>111</ele>
        <time>2023-10-30T12:42:42Z</time>
      </trkpt>
      <trkpt lat="46.61599" lon="-0.94126">
        <ele>110</ele>
        <time>2023-10-30T12:43:41Z</time>
      </trkpt>
      <trkpt lat="46.6155" lon="-0.94139">
        <ele>110</ele>
        <time>2023-10-30T12:44:47Z</time>
      </trkpt>
      <trkpt lat="46.61462" lon="-0.94248">
        <ele>106</ele>
        <time>2023-10-30T12:47:21Z</time>
      </trkpt>
      <trkpt lat="46.61314" lon="-0.94233">
        <ele>103</ele>
        <time>2023-10-30T12:50:39Z</time>
      </trkpt>
      <trkpt lat="46.61269" lon="-0.9424">
        <ele>102</ele>
        <time>2023-10-30T12:51:40Z</time>
      </trkpt>
      <trkpt lat="46.61319" lon="-0.94313">
        <ele>105</ele>
        <time>2023-10-30T12:53:14Z</time>
      </trkpt>
      <trkpt lat="46.61363" lon="-0.94398">
        <ele>107</ele>
        <time>2023-10-30T12:54:52Z</time>
      </trkpt>
      <trkpt lat="46.61407" lon="-0.94381">
        <ele>107</ele>
        <time>2023-10-30T12:55:52Z</time>
      </trkpt>
      <trkpt lat="46.61434" lon="-0.94375">
        <ele>107</ele>
        <time>2023-10-30T12:56:29Z</time>
      </trkpt>
      <trkpt lat="46.61457" lon="-0.94381">
        <ele>108</ele>
        <time>2023-10-30T12:57:00Z</time>
      </trkpt>
      <trkpt lat="46.61488" lon="-0.94407">
        <ele>110</ele>
        <time>2023-10-30T12:57:48Z</time>
      </trkpt>
      <trkpt lat="46.61515" lon="-0.94474">
        <ele>112</ele>
        <time>2023-10-30T12:58:59Z</time>
      </trkpt>
      <trkpt lat="46.61541" lon="-0.94566">
        <ele>113</ele>
        <time>2023-10-30T13:00:30Z</time>
      </trkpt>
      <trkpt lat="46.61566" lon="-0.94746">
        <ele>116</ele>
        <time>2023-10-30T13:03:19Z</time>
      </trkpt>
      <trkpt lat="46.61581" lon="-0.94778">
        <ele>115</ele>
        <time>2023-10-30T13:03:54Z</time>
      </trkpt>
      <trkpt lat="46.61612" lon="-0.94787">
        <ele>114</ele>
        <time>2023-10-30T13:04:36Z</time>
      </trkpt>
      <trkpt lat="46.61637" lon="-0.94855">
        <ele>113</ele>
        <time>2023-10-30T13:05:47Z</time>
      </trkpt>
      <trkpt lat="46.61672" lon="-0.94933">
        <ele>113</ele>
        <time>2023-10-30T13:07:12Z</time>
      </trkpt>
      <trkpt lat="46.61743" lon="-0.95016">
        <ele>117</ele>
        <time>2023-10-30T13:09:14Z</time>
      </trkpt>
      <trkpt lat="46.61771" lon="-0.95027">
        <ele>119</ele>
        <time>2023-10-30T13:09:53Z</time>
      </trkpt>
      <trkpt lat="46.6179" lon="-0.95046">
        <ele>120</ele>
        <time>2023-10-30T13:10:23Z</time>
      </trkpt>
      <trkpt lat="46.6182" lon="-0.951">
        <ele>122</ele>
        <time>2023-10-30T13:11:27Z</time>
      </trkpt>
      <trkpt lat="46.61845" lon="-0.9516">
        <ele>123</ele>
        <time>2023-10-30T13:12:31Z</time>
      </trkpt>
      <trkpt lat="46.61879" lon="-0.95218">
        <ele>122</ele>
        <time>2023-10-30T13:13:41Z</time>
      </trkpt>
      <trkpt lat="46.61927" lon="-0.95267">
        <ele>122</ele>
        <time>2023-10-30T13:14:59Z</time>
      </trkpt>
      <trkpt lat="46.61979" lon="-0.95289">
        <ele>121</ele>
        <time>2023-10-30T13:16:12Z</time>
      </trkpt>
      <trkpt lat="46.61994" lon="-0.95298">
        <ele>121</ele>
        <time>2023-10-30T13:16:33Z</time>
      </trkpt>
      <trkpt lat="46.62039" lon="-0.95471">
        <ele>117</ele>
        <time>2023-10-30T13:19:23Z</time>
      </trkpt>
      <trkpt lat="46.62035" lon="-0.95493">
        <ele>117</ele>
        <time>2023-10-30T13:19:44Z</time>
      </trkpt>
      <trkpt lat="46.62107" lon="-0.95703">
        <ele>117</ele>
        <time>2023-10-30T13:23:19Z</time>
      </trkpt>
      <trkpt lat="46.62117" lon="-0.95774">
        <ele>116</ele>
        <time>2023-10-30T13:24:25Z</time>
      </trkpt>
      <trkpt lat="46.62094" lon="-0.95875">
        <ele>115</ele>
        <time>2023-10-30T13:26:03Z</time>
      </trkpt>
      <trkpt lat="46.62095" lon="-0.95907">
        <ele>114</ele>
        <time>2023-10-30T13:26:32Z</time>
      </trkpt>
      <trkpt lat="46.6215" lon="-0.95935">
        <ele>115</ele>
        <time>2023-10-30T13:27:50Z</time>
      </trkpt>
      <trkpt lat="46.6219" lon="-0.95963">
        <ele>116</ele>
        <time>2023-10-30T13:28:49Z</time>
      </trkpt>
      <trkpt lat="46.6224" lon="-0.96036">
        <ele>117</ele>
        <time>2023-10-30T13:30:24Z</time>
      </trkpt>
      <trkpt lat="46.6229" lon="-0.96057">
        <ele>118</ele>
        <time>2023-10-30T13:31:33Z</time>
      </trkpt>
      <trkpt lat="46.62362" lon="-0.96061">
        <ele>119</ele>
        <time>2023-10-30T13:33:09Z</time>
      </trkpt>
      <trkpt lat="46.62406" lon="-0.9613">
        <ele>120</ele>
        <time>2023-10-30T13:34:36Z</time>
      </trkpt>
      <trkpt lat="46.62484" lon="-0.9592">
        <ele>121</ele>
        <time>2023-10-30T13:38:14Z</time>
      </trkpt>
      <trkpt lat="46.62502" lon="-0.95825">
        <ele>122</ele>
        <time>2023-10-30T13:39:45Z</time>
      </trkpt>
      <trkpt lat="46.62535" lon="-0.95765">
        <ele>122</ele>
        <time>2023-10-30T13:40:55Z</time>
      </trkpt>
      <trkpt lat="46.62545" lon="-0.95707">
        <ele>122</ele>
        <time>2023-10-30T13:41:50Z</time>
      </trkpt>
      <trkpt lat="46.62535" lon="-0.95632">
        <ele>122</ele>
        <time>2023-10-30T13:43:00Z</time>
      </trkpt>
      <trkpt lat="46.62542" lon="-0.95566">
        <ele>122</ele>
        <time>2023-10-30T13:44:01Z</time>
      </trkpt>
      <trkpt lat="46.62557" lon="-0.9551">
        <ele>122</ele>
        <time>2023-10-30T13:44:56Z</time>
      </trkpt>
      <trkpt lat="46.62589" lon="-0.95437">
        <ele>125</ele>
        <time>2023-10-30T13:46:16Z</time>
      </trkpt>
      <trkpt lat="46.62607" lon="-0.95381">
        <ele>125</ele>
        <time>2023-10-30T13:47:12Z</time>
      </trkpt>
      <trkpt lat="46.62683" lon="-0.95244">
        <ele>125</ele>
        <time>2023-10-30T13:49:54Z</time>
      </trkpt>
      <trkpt lat="46.62701" lon="-0.95192">
        <ele>124</ele>
        <time>2023-10-30T13:50:47Z</time>
      </trkpt>
      <trkpt lat="46.62745" lon="-0.95171">
        <ele>125</ele>
        <time>2023-10-30T13:51:49Z</time>
      </trkpt>
      <trkpt lat="46.62773" lon="-0.95169">
        <ele>125</ele>
        <time>2023-10-30T13:52:26Z</time>
      </trkpt>
      <trkpt lat="46.62816" lon="-0.95156">
        <ele>124</ele>
        <time>2023-10-30T13:53:25Z</time>
      </trkpt>
      <trkpt lat="46.62885" lon="-0.94995">
        <ele>122</ele>
        <time>2023-10-30T13:56:19Z</time>
      </trkpt>
      <trkpt lat="46.62924" lon="-0.94941">
        <ele>121</ele>
        <time>2023-10-30T13:57:31Z</time>
      </trkpt>
      <trkpt lat="46.62947" lon="-0.94879">
        <ele>121</ele>
        <time>2023-10-30T13:58:35Z</time>
      </trkpt>
      <trkpt lat="46.63071" lon="-0.94632">
        <ele>124</ele>
        <time>2023-10-30T14:03:16Z</time>
      </trkpt>
      <trkpt lat="46.63149" lon="-0.94529">
        <ele>117</ele>
        <time>2023-10-30T14:05:36Z</time>
      </trkpt>
      <trkpt lat="46.63201" lon="-0.94529">
        <ele>115</ele>
        <time>2023-10-30T14:06:45Z</time>
      </trkpt>
      <trkpt lat="46.63258" lon="-0.94474">
        <ele>110</ele>
        <time>2023-10-30T14:08:17Z</time>
      </trkpt>
      <trkpt lat="46.63305" lon="-0.94439">
        <ele>107</ele>
        <time>2023-10-30T14:09:27Z</time>
      </trkpt>
      <trkpt lat="46.63369" lon="-0.94413">
        <ele>103</ele>
        <time>2023-10-30T14:10:56Z</time>
      </trkpt>
      <trkpt lat="46.63407" lon="-0.94383">
        <ele>99</ele>
        <time>2023-10-30T14:11:53Z</time>
      </trkpt>
      <trkpt lat="46.63416" lon="-0.94398">
        <ele>99</ele>
        <time>2023-10-30T14:12:12Z</time>
      </trkpt>
      <trkpt lat="46.63457" lon="-0.94403">
        <ele>98</ele>
        <time>2023-10-30T14:13:07Z</time>
      </trkpt>
      <trkpt lat="46.63595" lon="-0.94506">
        <ele>105</ele>
        <time>2023-10-30T14:16:34Z</time>
      </trkpt>
      <trkpt lat="46.63623" lon="-0.94555">
        <ele>104</ele>
        <time>2023-10-30T14:17:32Z</time>
      </trkpt>
      <trkpt lat="46.63747" lon="-0.94581">
        <ele>97</ele>
        <time>2023-10-30T14:20:19Z</time>
      </trkpt>
      <trkpt lat="46.63783" lon="-0.94572">
        <ele>97</ele>
        <time>2023-10-30T14:21:08Z</time>
      </trkpt>
      <trkpt lat="46.63939" lon="-0.94877">
        <ele>91</ele>
        <time>2023-10-30T14:26:56Z</time>
      </trkpt>
      <trkpt lat="46.63964" lon="-0.94935">
        <ele>92</ele>
        <time>2023-10-30T14:27:59Z</time>
      </trkpt>
      <trkpt lat="46.64001" lon="-0.95085">
        <ele>104</ele>
        <time>2023-10-30T14:30:25Z</time>
      </trkpt>
      <trkpt lat="46.64007" lon="-0.95154">
        <ele>104</ele>
        <time>2023-10-30T14:31:29Z</time>
      </trkpt>
      <trkpt lat="46.64001" lon="-0.95255">
        <ele>102</ele>
        <time>2023-10-30T14:33:02Z</time>
      </trkpt>
      <trkpt lat="46.64085" lon="-0.95171">
        <ele>98</ele>
        <time>2023-10-30T14:35:18Z</time>
      </trkpt>
      <trkpt lat="46.64141" lon="-0.95119">
        <ele>94</ele>
        <time>2023-10-30T14:36:46Z</time>
      </trkpt>
      <trkpt lat="46.64244" lon="-0.95036">
        <ele>87</ele>
        <time>2023-10-30T14:39:23Z</time>
      </trkpt>
      <trkpt lat="46.64266" lon="-0.94993">
        <ele>84</ele>
        <time>2023-10-30T14:40:13Z</time>
      </trkpt>
      <trkpt lat="46.6427" lon="-0.94958">
        <ele>82</ele>
        <time>2023-10-30T14:40:45Z</time>
      </trkpt>
      <trkpt lat="46.64245" lon="-0.94862">
        <ele>80</ele>
        <time>2023-10-30T14:42:19Z</time>
      </trkpt>
      <trkpt lat="46.6422" lon="-0.94808">
        <ele>79</ele>
        <time>2023-10-30T14:43:19Z</time>
      </trkpt>
      <trkpt lat="46.64198" lon="-0.9478">
        <ele>80</ele>
        <time>2023-10-30T14:43:58Z</time>
      </trkpt>
      <trkpt lat="46.64195" lon="-0.9475">
        <ele>77</ele>
        <time>2023-10-30T14:44:26Z</time>
      </trkpt>
      <trkpt lat="46.64199" lon="-0.94729">
        <ele>75</ele>
        <time>2023-10-30T14:44:46Z</time>
      </trkpt>
      <trkpt lat="46.64283" lon="-0.94645">
        <ele>65</ele>
        <time>2023-10-30T14:47:01Z</time>
      </trkpt>
      <trkpt lat="46.64295" lon="-0.94607">
        <ele>64</ele>
        <time>2023-10-30T14:47:40Z</time>
      </trkpt>
      <trkpt lat="46.643" lon="-0.94549">
        <ele>64</ele>
        <time>2023-10-30T14:48:33Z</time>
      </trkpt>
      <trkpt lat="46.64289" lon="-0.94439">
        <ele>65</ele>
        <time>2023-10-30T14:50:15Z</time>
      </trkpt>
      <trkpt lat="46.64289" lon="-0.94381">
        <ele>65</ele>
        <time>2023-10-30T14:51:08Z</time>
      </trkpt>
      <trkpt lat="46.64323" lon="-0.94285">
        <ele>66</ele>
        <time>2023-10-30T14:52:47Z</time>
      </trkpt>
      <trkpt lat="46.64367" lon="-0.94207">
        <ele>67</ele>
        <time>2023-10-30T14:54:20Z</time>
      </trkpt>
      <trkpt lat="46.64447" lon="-0.94087">
        <ele>67</ele>
        <time>2023-10-30T14:56:53Z</time>
      </trkpt>
      <trkpt lat="46.64599" lon="-0.93978">
        <ele>65</ele>
        <time>2023-10-30T15:00:39Z</time>
      </trkpt>
      <trkpt lat="46.64696" lon="-0.93856">
        <ele>63</ele>
        <time>2023-10-30T15:03:30Z</time>
      </trkpt>
      <trkpt lat="46.64787" lon="-0.9375">
        <ele>61</ele>
        <time>2023-10-30T15:06:06Z</time>
      </trkpt>
      <trkpt lat="46.64814" lon="-0.93753">
        <ele>61</ele>
        <time>2023-10-30T15:06:42Z</time>
      </trkpt>
      <trkpt lat="46.64935" lon="-0.93873">
        <ele>55</ele>
        <time>2023-10-30T15:09:57Z</time>
      </trkpt>
      <trkpt lat="46.65029" lon="-0.93989">
        <ele>56</ele>
        <time>2023-10-30T15:12:42Z</time>
      </trkpt>
      <trkpt lat="46.65089" lon="-0.93978">
        <ele>55</ele>
        <time>2023-10-30T15:14:02Z</time>
      </trkpt>
      <trkpt lat="46.6512" lon="-0.93984">
        <ele>56</ele>
        <time>2023-10-30T15:14:44Z</time>
      </trkpt>
      <trkpt lat="46.65239" lon="-0.93991">
        <ele>60</ele>
        <time>2023-10-30T15:17:23Z</time>
      </trkpt>
      <trkpt lat="46.65381" lon="-0.93517">
        <ele>51</ele>
        <time>2023-10-30T15:25:17Z</time>
      </trkpt>
      <trkpt lat="46.65416" lon="-0.93444">
        <ele>52</ele>
        <time>2023-10-30T15:26:38Z</time>
      </trkpt>
      <trkpt lat="46.65468" lon="-0.93482">
        <ele>50</ele>
        <time>2023-10-30T15:27:56Z</time>
      </trkpt>
      <trkpt lat="46.65521" lon="-0.93486">
        <ele>50</ele>
        <time>2023-10-30T15:29:07Z</time>
      </trkpt>
      <trkpt lat="46.65642" lon="-0.9363">
        <ele>51</ele>
        <time>2023-10-30T15:32:35Z</time>
      </trkpt>
      <trkpt lat="46.65686" lon="-0.93701">
        <ele>51</ele>
        <time>2023-10-30T15:34:03Z</time>
      </trkpt>
      <trkpt lat="46.65786" lon="-0.93776">
        <ele>51</ele>
        <time>2023-10-30T15:36:33Z</time>
      </trkpt>
      <trkpt lat="46.65809" lon="-0.9378">
        <ele>50</ele>
        <time>2023-10-30T15:37:04Z</time>
      </trkpt>
      <trkpt lat="46.65902" lon="-0.93753">
        <ele>50</ele>
        <time>2023-10-30T15:39:10Z</time>
      </trkpt>
      <trkpt lat="46.65955" lon="-0.93763">
        <ele>50</ele>
        <time>2023-10-30T15:40:22Z</time>
      </trkpt>
      <trkpt lat="46.6608" lon="-0.93896">
        <ele>46</ele>
        <time>2023-10-30T15:43:48Z</time>
      </trkpt>
      <trkpt lat="46.66207" lon="-0.9419">
        <ele>46</ele>
        <time>2023-10-30T15:49:06Z</time>
      </trkpt>
      <trkpt lat="46.66357" lon="-0.94105">
        <ele>49</ele>
        <time>2023-10-30T15:52:41Z</time>
      </trkpt>
      <trkpt lat="46.66098" lon="-0.93151">
        <ele>67</ele>
        <time>2023-10-30T16:08:21Z</time>
      </trkpt>
      <trkpt lat="46.66084" lon="-0.92875">
        <ele>73</ele>
        <time>2023-10-30T16:12:34Z</time>
      </trkpt>
      <trkpt lat="46.65909" lon="-0.92564">
        <ele>73</ele>
        <time>2023-10-30T16:18:42Z</time>
      </trkpt>
      <trkpt lat="46.65758" lon="-0.91941">
        <ele>73</ele>
        <time>2023-10-30T16:28:48Z</time>
      </trkpt>
      <trkpt lat="46.65684" lon="-0.91824">
        <ele>74</ele>
        <time>2023-10-30T16:31:13Z</time>
      </trkpt>
      <trkpt lat="46.65688" lon="-0.9163">
        <ele>74</ele>
        <time>2023-10-30T16:34:11Z</time>
      </trkpt>
      <trkpt lat="46.65615" lon="-0.9157">
        <ele>79</ele>
        <time>2023-10-30T16:36:03Z</time>
      </trkpt>
      <trkpt lat="46.65588" lon="-0.91409">
        <ele>77</ele>
        <time>2023-10-30T16:38:35Z</time>
      </trkpt>
      <trkpt lat="46.65655" lon="-0.91394">
        <ele>74</ele>
        <time>2023-10-30T16:40:05Z</time>
      </trkpt>
      <trkpt lat="46.65705" lon="-0.91502">
        <ele>74</ele>
        <time>2023-10-30T16:42:05Z</time>
      </trkpt>
      <trkpt lat="46.65718" lon="-0.91487">
        <ele>73</ele>
        <time>2023-10-30T16:42:27Z</time>
      </trkpt>
    </trkseg>
  </trk>
  <trk>
    <name><![CDATA[GRPMelusineJ9_BazogesP_RochereauS_21.2km-12431542]]></name>
    <extensions>
      <line xmlns="http://www.topografix.com/GPX/gpx_style/0/2">
        <color>FFFF00</color>
        <width>4</width>
      </line>
    </extensions>
    <trkseg>
      <trkpt lat="46.65627" lon="-0.91414">
        <ele>76</ele>
        <time>2023-10-30T09:47:15Z</time>
      </trkpt>
      <trkpt lat="46.65673" lon="-0.91414">
        <ele>74</ele>
        <time>2023-10-30T09:48:16Z</time>
      </trkpt>
      <trkpt lat="46.65719" lon="-0.91517">
        <ele>73</ele>
        <time>2023-10-30T09:50:09Z</time>
      </trkpt>
      <trkpt lat="46.65681" lon="-0.91818">
        <ele>74</ele>
        <time>2023-10-30T09:54:49Z</time>
      </trkpt>
      <trkpt lat="46.65796" lon="-0.92048">
        <ele>74</ele>
        <time>2023-10-30T09:59:10Z</time>
      </trkpt>
      <trkpt lat="46.65898" lon="-0.92577">
        <ele>73</ele>
        <time>2023-10-30T10:07:33Z</time>
      </trkpt>
      <trkpt lat="46.66081" lon="-0.92873">
        <ele>73</ele>
        <time>2023-10-30T10:13:38Z</time>
      </trkpt>
      <trkpt lat="46.66095" lon="-0.93143">
        <ele>68</ele>
        <time>2023-10-30T10:17:46Z</time>
      </trkpt>
      <trkpt lat="46.66388" lon="-0.942">
        <ele>49</ele>
        <time>2023-10-30T10:35:10Z</time>
      </trkpt>
      <trkpt lat="46.66512" lon="-0.94236">
        <ele>55</ele>
        <time>2023-10-30T10:37:59Z</time>
      </trkpt>
      <trkpt lat="46.66575" lon="-0.94538">
        <ele>52</ele>
        <time>2023-10-30T10:42:48Z</time>
      </trkpt>
      <trkpt lat="46.66799" lon="-0.94851">
        <ele>57</ele>
        <time>2023-10-30T10:49:42Z</time>
      </trkpt>
      <trkpt lat="46.67275" lon="-0.96084">
        <ele>54</ele>
        <time>2023-10-30T11:11:17Z</time>
      </trkpt>
      <trkpt lat="46.67488" lon="-0.95918">
        <ele>73</ele>
        <time>2023-10-30T11:16:40Z</time>
      </trkpt>
      <trkpt lat="46.6753" lon="-0.96366">
        <ele>71</ele>
        <time>2023-10-30T11:23:34Z</time>
      </trkpt>
      <trkpt lat="46.67686" lon="-0.96531">
        <ele>74</ele>
        <time>2023-10-30T11:27:51Z</time>
      </trkpt>
      <trkpt lat="46.67898" lon="-0.96328">
        <ele>81</ele>
        <time>2023-10-30T11:33:30Z</time>
      </trkpt>
      <trkpt lat="46.68245" lon="-0.96212">
        <ele>75</ele>
        <time>2023-10-30T11:41:25Z</time>
      </trkpt>
      <trkpt lat="46.68336" lon="-0.96302">
        <ele>73</ele>
        <time>2023-10-30T11:43:51Z</time>
      </trkpt>
      <trkpt lat="46.68716" lon="-0.96308">
        <ele>50</ele>
        <time>2023-10-30T11:52:18Z</time>
      </trkpt>
      <trkpt lat="46.68795" lon="-0.96142">
        <ele>47</ele>
        <time>2023-10-30T11:55:23Z</time>
      </trkpt>
      <trkpt lat="46.68884" lon="-0.96214">
        <ele>47</ele>
        <time>2023-10-30T11:57:39Z</time>
      </trkpt>
      <trkpt lat="46.69042" lon="-0.95983">
        <ele>55</ele>
        <time>2023-10-30T12:02:38Z</time>
      </trkpt>
      <trkpt lat="46.69158" lon="-0.96152">
        <ele>66</ele>
        <time>2023-10-30T12:06:17Z</time>
      </trkpt>
      <trkpt lat="46.69214" lon="-0.96306">
        <ele>71</ele>
        <time>2023-10-30T12:08:56Z</time>
      </trkpt>
      <trkpt lat="46.69646" lon="-0.96727">
        <ele>73</ele>
        <time>2023-10-30T12:20:30Z</time>
      </trkpt>
      <trkpt lat="46.69795" lon="-0.96676">
        <ele>77</ele>
        <time>2023-10-30T12:23:54Z</time>
      </trkpt>
      <trkpt lat="46.70129" lon="-0.96877">
        <ele>81</ele>
        <time>2023-10-30T12:31:56Z</time>
      </trkpt>
      <trkpt lat="46.70191" lon="-0.96542">
        <ele>81</ele>
        <time>2023-10-30T12:37:14Z</time>
      </trkpt>
      <trkpt lat="46.70497" lon="-0.96487">
        <ele>70</ele>
        <time>2023-10-30T12:44:05Z</time>
      </trkpt>
      <trkpt lat="46.70606" lon="-0.96663">
        <ele>68</ele>
        <time>2023-10-30T12:47:42Z</time>
      </trkpt>
      <trkpt lat="46.70765" lon="-0.96685">
        <ele>72</ele>
        <time>2023-10-30T12:51:15Z</time>
      </trkpt>
      <trkpt lat="46.70983" lon="-0.95904">
        <ele>57</ele>
        <time>2023-10-30T13:04:07Z</time>
      </trkpt>
      <trkpt lat="46.71166" lon="-0.95795">
        <ele>67</ele>
        <time>2023-10-30T13:08:31Z</time>
      </trkpt>
      <trkpt lat="46.7122" lon="-0.95478">
        <ele>54</ele>
        <time>2023-10-30T13:13:29Z</time>
      </trkpt>
      <trkpt lat="46.71448" lon="-0.95572">
        <ele>58</ele>
        <time>2023-10-30T13:18:46Z</time>
      </trkpt>
      <trkpt lat="46.71377" lon="-0.95182">
        <ele>61</ele>
        <time>2023-10-30T13:24:55Z</time>
      </trkpt>
      <trkpt lat="46.71389" lon="-0.94792">
        <ele>79</ele>
        <time>2023-10-30T13:30:52Z</time>
      </trkpt>
      <trkpt lat="46.71196" lon="-0.94908">
        <ele>79</ele>
        <time>2023-10-30T13:35:31Z</time>
      </trkpt>
      <trkpt lat="46.71022" lon="-0.94568">
        <ele>59</ele>
        <time>2023-10-30T13:41:59Z</time>
      </trkpt>
      <trkpt lat="46.70905" lon="-0.9462">
        <ele>56</ele>
        <time>2023-10-30T13:44:42Z</time>
      </trkpt>
      <trkpt lat="46.70824" lon="-0.94561">
        <ele>62</ele>
        <time>2023-10-30T13:46:43Z</time>
      </trkpt>
      <trkpt lat="46.70744" lon="-0.94773">
        <ele>59</ele>
        <time>2023-10-30T13:50:24Z</time>
      </trkpt>
      <trkpt lat="46.70428" lon="-0.94987">
        <ele>57</ele>
        <time>2023-10-30T13:58:09Z</time>
      </trkpt>
      <trkpt lat="46.70352" lon="-0.946">
        <ele>76</ele>
        <time>2023-10-30T14:04:18Z</time>
      </trkpt>
      <trkpt lat="46.70163" lon="-0.94156">
        <ele>83</ele>
        <time>2023-10-30T14:12:16Z</time>
      </trkpt>
      <trkpt lat="46.70103" lon="-0.93697">
        <ele>77</ele>
        <time>2023-10-30T14:19:23Z</time>
      </trkpt>
      <trkpt lat="46.69934" lon="-0.93334">
        <ele>79</ele>
        <time>2023-10-30T14:26:05Z</time>
      </trkpt>
      <trkpt lat="46.69978" lon="-0.92713">
        <ele>83</ele>
        <time>2023-10-30T14:35:36Z</time>
      </trkpt>
      <trkpt lat="46.69825" lon="-0.92598">
        <ele>72</ele>
        <time>2023-10-30T14:39:26Z</time>
      </trkpt>
      <trkpt lat="46.69508" lon="-0.92706">
        <ele>63</ele>
        <time>2023-10-30T14:46:41Z</time>
      </trkpt>
      <trkpt lat="46.69399" lon="-0.9254">
        <ele>82</ele>
        <time>2023-10-30T14:50:11Z</time>
      </trkpt>
      <trkpt lat="46.6932" lon="-0.92591">
        <ele>87</ele>
        <time>2023-10-30T14:52:06Z</time>
      </trkpt>
      <trkpt lat="46.69196" lon="-0.92533">
        <ele>99</ele>
        <time>2023-10-30T14:55:00Z</time>
      </trkpt>
      <trkpt lat="46.68978" lon="-0.92677">
        <ele>103</ele>
        <time>2023-10-30T15:00:19Z</time>
      </trkpt>
      <trkpt lat="46.68968" lon="-0.92923">
        <ele>102</ele>
        <time>2023-10-30T15:04:05Z</time>
      </trkpt>
      <trkpt lat="46.68726" lon="-0.93161">
        <ele>106</ele>
        <time>2023-10-30T15:10:34Z</time>
      </trkpt>
      <trkpt lat="46.68468" lon="-0.93221">
        <ele>98</ele>
        <time>2023-10-30T15:16:23Z</time>
      </trkpt>
      <trkpt lat="46.68431" lon="-0.92913">
        <ele>99</ele>
        <time>2023-10-30T15:21:09Z</time>
      </trkpt>
      <trkpt lat="46.68321" lon="-0.92675">
        <ele>93</ele>
        <time>2023-10-30T15:25:32Z</time>
      </trkpt>
      <trkpt lat="46.68285" lon="-0.92408">
        <ele>98</ele>
        <time>2023-10-30T15:29:41Z</time>
      </trkpt>
      <trkpt lat="46.68191" lon="-0.92302">
        <ele>97</ele>
        <time>2023-10-30T15:32:20Z</time>
      </trkpt>
      <trkpt lat="46.68017" lon="-0.9227">
        <ele>96</ele>
        <time>2023-10-30T15:36:14Z</time>
      </trkpt>
      <trkpt lat="46.67859" lon="-0.92331">
        <ele>96</ele>
        <time>2023-10-30T15:39:52Z</time>
      </trkpt>
      <trkpt lat="46.67418" lon="-0.92832">
        <ele>92</ele>
        <time>2023-10-30T15:52:18Z</time>
      </trkpt>
      <trkpt lat="46.67192" lon="-0.92895">
        <ele>85</ele>
        <time>2023-10-30T15:57:25Z</time>
      </trkpt>
      <trkpt lat="46.66839" lon="-0.9319">
        <ele>70</ele>
        <time>2023-10-30T16:06:28Z</time>
      </trkpt>
      <trkpt lat="46.66557" lon="-0.93154">
        <ele>54</ele>
        <time>2023-10-30T16:12:46Z</time>
      </trkpt>
      <trkpt lat="46.66366" lon="-0.92693">
        <ele>53</ele>
        <time>2023-10-30T16:20:59Z</time>
      </trkpt>
      <trkpt lat="46.6618" lon="-0.91652">
        <ele>58</ele>
        <time>2023-10-30T16:37:24Z</time>
      </trkpt>
      <trkpt lat="46.65932" lon="-0.91746">
        <ele>63</ele>
        <time>2023-10-30T16:43:06Z</time>
      </trkpt>
      <trkpt lat="46.65848" lon="-0.91566">
        <ele>70</ele>
        <time>2023-10-30T16:46:26Z</time>
      </trkpt>
      <trkpt lat="46.65713" lon="-0.91527">
        <ele>73</ele>
        <time>2023-10-30T16:49:29Z</time>
      </trkpt>
      <trkpt lat="46.65667" lon="-0.91403">
        <ele>74</ele>
        <time>2023-10-30T16:51:38Z</time>
      </trkpt>
      <trkpt lat="46.65659" lon="-0.91393">
        <ele>74</ele>
        <time>2023-10-30T16:51:52Z</time>
      </trkpt>
    </trkseg>
  </trk>
</gpx>